sensor_id;sensor_type;location;lat;lon;timestamp;P1;durP1;ratioP1;P2;durP2;ratioP2
75758;SDS011;64371;47.566;19.086;2023-02-15T00:01:10;58.75;;;25.98;;
75758;SDS011;64371;47.566;19.086;2023-02-15T00:04:19;60.43;;;24.53;;
75758;SDS011;64371;47.566;19.086;2023-02-15T00:07:26;59.00;;;26.87;;
75758;SDS011;64371;47.566;19.086;2023-02-15T00:10:28;61.40;;;26.20;;
75758;SDS011;64371;47.566;19.086;2023-02-15T00:13:33;65.97;;;27.25;;
75758;SDS011;64371;47.566;19.086;2023-02-15T00:16:41;65.25;;;27.13;;
75758;SDS011;64371;47.566;19.086;2023-02-15T00:19:46;59.22;;;25.30;;
75758;SDS011;64371;47.566;19.086;2023-02-15T00:22:51;59.97;;;25.03;;
75758;SDS011;64371;47.566;19.086;2023-02-15T00:26:09;61.90;;;27.00;;
75758;SDS011;64371;47.566;19.086;2023-02-15T00:29:17;69.93;;;28.35;;
75758;SDS011;64371;47.566;19.086;2023-02-15T00:32:28;65.03;;;27.65;;
75758;SDS011;64371;47.566;19.086;2023-02-15T00:35:36;65.00;;;27.57;;
75758;SDS011;64371;47.566;19.086;2023-02-15T00:38:44;64.07;;;28.27;;
75758;SDS011;64371;47.566;19.086;2023-02-15T00:41:53;63.85;;;27.08;;
75758;SDS011;64371;47.566;19.086;2023-02-15T00:44:55;62.67;;;27.15;;
75758;SDS011;64371;47.566;19.086;2023-02-15T00:47:57;67.95;;;27.52;;
75758;SDS011;64371;47.566;19.086;2023-02-15T00:51:02;58.97;;;26.77;;
75758;SDS011;64371;47.566;19.086;2023-02-15T00:54:05;65.70;;;27.77;;
75758;SDS011;64371;47.566;19.086;2023-02-15T00:57:16;64.50;;;27.48;;
75758;SDS011;64371;47.566;19.086;2023-02-15T01:00:20;63.47;;;27.02;;
75758;SDS011;64371;47.566;19.086;2023-02-15T01:03:33;64.75;;;27.77;;
75758;SDS011;64371;47.566;19.086;2023-02-15T01:06:44;59.63;;;26.70;;
75758;SDS011;64371;47.566;19.086;2023-02-15T01:10:07;65.13;;;27.50;;
75758;SDS011;64371;47.566;19.086;2023-02-15T01:13:17;64.65;;;27.40;;
75758;SDS011;64371;47.566;19.086;2023-02-15T01:16:19;67.13;;;27.38;;
75758;SDS011;64371;47.566;19.086;2023-02-15T01:19:25;63.33;;;27.05;;
75758;SDS011;64371;47.566;19.086;2023-02-15T01:22:34;63.13;;;27.67;;
75758;SDS011;64371;47.566;19.086;2023-02-15T01:25:42;56.83;;;26.83;;
75758;SDS011;64371;47.566;19.086;2023-02-15T01:28:50;66.40;;;27.20;;
75758;SDS011;64371;47.566;19.086;2023-02-15T01:31:57;63.35;;;27.90;;
75758;SDS011;64371;47.566;19.086;2023-02-15T01:34:59;67.90;;;29.80;;
75758;SDS011;64371;47.566;19.086;2023-02-15T01:38:16;65.07;;;27.43;;
75758;SDS011;64371;47.566;19.086;2023-02-15T01:41:18;60.33;;;25.83;;
75758;SDS011;64371;47.566;19.086;2023-02-15T01:47:51;69.15;;;30.15;;
75758;SDS011;64371;47.566;19.086;2023-02-15T01:51:04;62.45;;;26.83;;
75758;SDS011;64371;47.566;19.086;2023-02-15T01:54:18;65.70;;;28.83;;
75758;SDS011;64371;47.566;19.086;2023-02-15T01:57:32;65.47;;;27.33;;
75758;SDS011;64371;47.566;19.086;2023-02-15T02:00:37;69.97;;;29.88;;
75758;SDS011;64371;47.566;19.086;2023-02-15T02:03:44;64.00;;;27.65;;
75758;SDS011;64371;47.566;19.086;2023-02-15T02:07:09;66.15;;;28.25;;
75758;SDS011;64371;47.566;19.086;2023-02-15T02:10:17;76.33;;;31.63;;
75758;SDS011;64371;47.566;19.086;2023-02-15T02:13:33;72.63;;;29.57;;
75758;SDS011;64371;47.566;19.086;2023-02-15T02:16:55;76.05;;;33.20;;
75758;SDS011;64371;47.566;19.086;2023-02-15T02:37:35;72.28;;;30.20;;
75758;SDS011;64371;47.566;19.086;2023-02-15T02:40:45;70.03;;;29.05;;
75758;SDS011;64371;47.566;19.086;2023-02-15T02:50:25;65.63;;;27.90;;
75758;SDS011;64371;47.566;19.086;2023-02-15T02:53:36;70.45;;;29.05;;
75758;SDS011;64371;47.566;19.086;2023-02-15T02:56:41;65.97;;;28.10;;
75758;SDS011;64371;47.566;19.086;2023-02-15T02:59:49;66.20;;;25.97;;
75758;SDS011;64371;47.566;19.086;2023-02-15T03:02:54;60.67;;;25.20;;
75758;SDS011;64371;47.566;19.086;2023-02-15T03:06:30;55.88;;;24.13;;
75758;SDS011;64371;47.566;19.086;2023-02-15T03:09:50;60.92;;;25.52;;
75758;SDS011;64371;47.566;19.086;2023-02-15T03:12:58;59.40;;;25.33;;
75758;SDS011;64371;47.566;19.086;2023-02-15T03:16:03;52.63;;;22.67;;
75758;SDS011;64371;47.566;19.086;2023-02-15T03:19:31;57.67;;;23.53;;
75758;SDS011;64371;47.566;19.086;2023-02-15T03:22:43;57.80;;;23.73;;
75758;SDS011;64371;47.566;19.086;2023-02-15T03:25:59;55.05;;;23.15;;
75758;SDS011;64371;47.566;19.086;2023-02-15T03:29:09;55.42;;;23.67;;
75758;SDS011;64371;47.566;19.086;2023-02-15T03:32:19;47.67;;;19.73;;
75758;SDS011;64371;47.566;19.086;2023-02-15T03:35:25;54.80;;;23.40;;
75758;SDS011;64371;47.566;19.086;2023-02-15T03:38:47;52.95;;;22.70;;
75758;SDS011;64371;47.566;19.086;2023-02-15T03:42:00;54.70;;;22.88;;
75758;SDS011;64371;47.566;19.086;2023-02-15T03:45:22;54.83;;;22.15;;
75758;SDS011;64371;47.566;19.086;2023-02-15T03:48:35;57.83;;;21.67;;
75758;SDS011;64371;47.566;19.086;2023-02-15T03:51:55;52.13;;;22.07;;
75758;SDS011;64371;47.566;19.086;2023-02-15T03:55:08;51.58;;;22.10;;
75758;SDS011;64371;47.566;19.086;2023-02-15T03:58:11;51.38;;;21.63;;
75758;SDS011;64371;47.566;19.086;2023-02-15T04:01:35;55.75;;;22.45;;
75758;SDS011;64371;47.566;19.086;2023-02-15T04:05:19;54.10;;;20.80;;
75758;SDS011;64371;47.566;19.086;2023-02-15T04:08:24;55.27;;;22.00;;
75758;SDS011;64371;47.566;19.086;2023-02-15T04:11:52;51.83;;;22.15;;
75758;SDS011;64371;47.566;19.086;2023-02-15T04:14:57;52.85;;;22.63;;
75758;SDS011;64371;47.566;19.086;2023-02-15T04:18:23;53.38;;;22.95;;
75758;SDS011;64371;47.566;19.086;2023-02-15T04:21:48;57.37;;;22.13;;
75758;SDS011;64371;47.566;19.086;2023-02-15T04:25:15;52.20;;;22.23;;
75758;SDS011;64371;47.566;19.086;2023-02-15T04:28:17;57.42;;;25.17;;
75758;SDS011;64371;47.566;19.086;2023-02-15T04:31:25;60.35;;;25.35;;
75758;SDS011;64371;47.566;19.086;2023-02-15T04:34:28;54.80;;;22.60;;
75758;SDS011;64371;47.566;19.086;2023-02-15T04:37:35;54.07;;;22.70;;
75758;SDS011;64371;47.566;19.086;2023-02-15T04:40:40;54.40;;;22.87;;
75758;SDS011;64371;47.566;19.086;2023-02-15T04:43:48;62.85;;;24.85;;
75758;SDS011;64371;47.566;19.086;2023-02-15T04:47:09;50.30;;;23.10;;
75758;SDS011;64371;47.566;19.086;2023-02-15T04:50:12;51.95;;;23.58;;
75758;SDS011;64371;47.566;19.086;2023-02-15T04:53:24;61.83;;;24.17;;
75758;SDS011;64371;47.566;19.086;2023-02-15T04:56:31;53.17;;;23.13;;
75758;SDS011;64371;47.566;19.086;2023-02-15T04:59:38;51.53;;;21.88;;
75758;SDS011;64371;47.566;19.086;2023-02-15T05:02:45;56.28;;;23.95;;
75758;SDS011;64371;47.566;19.086;2023-02-15T05:06:04;55.03;;;23.00;;
75758;SDS011;64371;47.566;19.086;2023-02-15T05:09:10;57.83;;;24.83;;
75758;SDS011;64371;47.566;19.086;2023-02-15T05:12:13;55.37;;;24.23;;
75758;SDS011;64371;47.566;19.086;2023-02-15T05:15:18;59.95;;;24.30;;
75758;SDS011;64371;47.566;19.086;2023-02-15T05:18:26;66.35;;;25.05;;
75758;SDS011;64371;47.566;19.086;2023-02-15T05:21:31;71.93;;;27.52;;
75758;SDS011;64371;47.566;19.086;2023-02-15T05:24:34;60.40;;;25.50;;
75758;SDS011;64371;47.566;19.086;2023-02-15T05:27:55;67.17;;;26.90;;
75758;SDS011;64371;47.566;19.086;2023-02-15T05:31:16;62.13;;;25.25;;
75758;SDS011;64371;47.566;19.086;2023-02-15T05:34:22;64.72;;;25.65;;
75758;SDS011;64371;47.566;19.086;2023-02-15T05:37:29;60.30;;;25.33;;
75758;SDS011;64371;47.566;19.086;2023-02-15T05:40:32;62.67;;;25.40;;
75758;SDS011;64371;47.566;19.086;2023-02-15T05:43:37;69.33;;;29.23;;
75758;SDS011;64371;47.566;19.086;2023-02-15T05:46:58;64.05;;;27.77;;
75758;SDS011;64371;47.566;19.086;2023-02-15T05:50:05;61.40;;;25.80;;
75758;SDS011;64371;47.566;19.086;2023-02-15T05:53:15;63.90;;;26.98;;
75758;SDS011;64371;47.566;19.086;2023-02-15T05:56:17;60.83;;;27.17;;
75758;SDS011;64371;47.566;19.086;2023-02-15T05:59:24;69.03;;;29.80;;
75758;SDS011;64371;47.566;19.086;2023-02-15T06:02:33;61.13;;;27.02;;
75758;SDS011;64371;47.566;19.086;2023-02-15T06:05:40;56.90;;;24.05;;
75758;SDS011;64371;47.566;19.086;2023-02-15T06:08:44;57.67;;;24.02;;
75758;SDS011;64371;47.566;19.086;2023-02-15T06:11:48;55.70;;;23.80;;
75758;SDS011;64371;47.566;19.086;2023-02-15T06:14:55;60.00;;;25.00;;
75758;SDS011;64371;47.566;19.086;2023-02-15T06:18:00;54.90;;;23.38;;
75758;SDS011;64371;47.566;19.086;2023-02-15T06:21:02;55.72;;;23.90;;
75758;SDS011;64371;47.566;19.086;2023-02-15T06:24:05;49.25;;;21.52;;
75758;SDS011;64371;47.566;19.086;2023-02-15T06:27:10;55.07;;;23.33;;
75758;SDS011;64371;47.566;19.086;2023-02-15T06:30:13;54.20;;;23.87;;
75758;SDS011;64371;47.566;19.086;2023-02-15T06:33:23;57.92;;;24.27;;
75758;SDS011;64371;47.566;19.086;2023-02-15T06:36:30;54.72;;;22.80;;
75758;SDS011;64371;47.566;19.086;2023-02-15T06:39:34;50.70;;;21.92;;
75758;SDS011;64371;47.566;19.086;2023-02-15T06:42:39;47.33;;;21.63;;
75758;SDS011;64371;47.566;19.086;2023-02-15T06:45:44;50.97;;;21.83;;
75758;SDS011;64371;47.566;19.086;2023-02-15T06:48:46;51.97;;;22.38;;
75758;SDS011;64371;47.566;19.086;2023-02-15T06:51:52;54.72;;;21.55;;
75758;SDS011;64371;47.566;19.086;2023-02-15T06:54:54;51.33;;;23.40;;
75758;SDS011;64371;47.566;19.086;2023-02-15T06:58:01;47.47;;;21.00;;
75758;SDS011;64371;47.566;19.086;2023-02-15T07:01:06;46.00;;;20.73;;
75758;SDS011;64371;47.566;19.086;2023-02-15T07:04:10;39.92;;;18.70;;
75758;SDS011;64371;47.566;19.086;2023-02-15T07:07:23;44.42;;;19.38;;
75758;SDS011;64371;47.566;19.086;2023-02-15T07:10:36;48.47;;;20.23;;
75758;SDS011;64371;47.566;19.086;2023-02-15T07:13:48;53.25;;;22.60;;
75758;SDS011;64371;47.566;19.086;2023-02-15T07:17:03;52.63;;;23.93;;
75758;SDS011;64371;47.566;19.086;2023-02-15T07:20:34;50.40;;;22.35;;
75758;SDS011;64371;47.566;19.086;2023-02-15T07:23:46;46.40;;;21.10;;
75758;SDS011;64371;47.566;19.086;2023-02-15T07:26:54;49.35;;;22.33;;
75758;SDS011;64371;47.566;19.086;2023-02-15T07:30:01;48.87;;;22.67;;
75758;SDS011;64371;47.566;19.086;2023-02-15T07:33:13;41.60;;;20.27;;
75758;SDS011;64371;47.566;19.086;2023-02-15T07:36:39;42.97;;;20.88;;
75758;SDS011;64371;47.566;19.086;2023-02-15T07:39:56;41.92;;;21.45;;
75758;SDS011;64371;47.566;19.086;2023-02-15T07:43:03;46.50;;;21.60;;
75758;SDS011;64371;47.566;19.086;2023-02-15T07:46:21;46.45;;;22.42;;
75758;SDS011;64371;47.566;19.086;2023-02-15T07:49:30;40.70;;;21.57;;
75758;SDS011;64371;47.566;19.086;2023-02-15T07:52:46;39.92;;;19.77;;
75758;SDS011;64371;47.566;19.086;2023-02-15T07:56:00;40.45;;;20.48;;
75758;SDS011;64371;47.566;19.086;2023-02-15T07:59:17;38.97;;;19.90;;
75758;SDS011;64371;47.566;19.086;2023-02-15T08:02:35;47.83;;;23.48;;
75758;SDS011;64371;47.566;19.086;2023-02-15T08:05:49;36.03;;;16.37;;
75758;SDS011;64371;47.566;19.086;2023-02-15T08:08:59;43.08;;;20.45;;
75758;SDS011;64371;47.566;19.086;2023-02-15T08:12:05;45.47;;;21.55;;
75758;SDS011;64371;47.566;19.086;2023-02-15T08:15:26;41.08;;;19.30;;
75758;SDS011;64371;47.566;19.086;2023-02-15T08:18:32;44.58;;;20.25;;
75758;SDS011;64371;47.566;19.086;2023-02-15T08:21:39;43.63;;;22.77;;
75758;SDS011;64371;47.566;19.086;2023-02-15T08:24:43;44.17;;;21.85;;
75758;SDS011;64371;47.566;19.086;2023-02-15T08:27:52;45.03;;;22.55;;
75758;SDS011;64371;47.566;19.086;2023-02-15T08:31:06;49.15;;;25.70;;
75758;SDS011;64371;47.566;19.086;2023-02-15T08:34:21;45.15;;;24.52;;
75758;SDS011;64371;47.566;19.086;2023-02-15T08:37:32;49.27;;;25.57;;
75758;SDS011;64371;47.566;19.086;2023-02-15T08:40:52;48.20;;;24.45;;
75758;SDS011;64371;47.566;19.086;2023-02-15T08:44:05;47.35;;;21.67;;
75758;SDS011;64371;47.566;19.086;2023-02-15T08:47:15;47.45;;;24.05;;
75758;SDS011;64371;47.566;19.086;2023-02-15T08:50:26;45.28;;;24.20;;
75758;SDS011;64371;47.566;19.086;2023-02-15T08:53:37;42.57;;;21.77;;
75758;SDS011;64371;47.566;19.086;2023-02-15T08:56:43;41.45;;;21.17;;
75758;SDS011;64371;47.566;19.086;2023-02-15T08:59:49;40.22;;;19.75;;
75758;SDS011;64371;47.566;19.086;2023-02-15T09:02:57;25.38;;;12.63;;
75758;SDS011;64371;47.566;19.086;2023-02-15T09:06:00;36.40;;;18.88;;
75758;SDS011;64371;47.566;19.086;2023-02-15T09:09:16;38.23;;;19.13;;
75758;SDS011;64371;47.566;19.086;2023-02-15T09:12:26;37.15;;;17.98;;
75758;SDS011;64371;47.566;19.086;2023-02-15T09:15:31;23.88;;;9.43;;
75758;SDS011;64371;47.566;19.086;2023-02-15T09:18:35;36.30;;;16.77;;
75758;SDS011;64371;47.566;19.086;2023-02-15T09:22:00;37.67;;;20.65;;
75758;SDS011;64371;47.566;19.086;2023-02-15T09:25:07;38.33;;;19.47;;
75758;SDS011;64371;47.566;19.086;2023-02-15T09:28:23;36.95;;;17.70;;
75758;SDS011;64371;47.566;19.086;2023-02-15T09:31:26;21.90;;;11.25;;
75758;SDS011;64371;47.566;19.086;2023-02-15T09:34:35;41.25;;;19.60;;
75758;SDS011;64371;47.566;19.086;2023-02-15T09:37:45;40.33;;;18.67;;
75758;SDS011;64371;47.566;19.086;2023-02-15T09:54:37;27.55;;;13.13;;
75758;SDS011;64371;47.566;19.086;2023-02-15T09:58:03;33.27;;;13.87;;
75758;SDS011;64371;47.566;19.086;2023-02-15T10:08:17;42.67;;;20.25;;
75758;SDS011;64371;47.566;19.086;2023-02-15T10:15:17;25.23;;;11.90;;
75758;SDS011;64371;47.566;19.086;2023-02-15T10:28:45;31.85;;;17.50;;
75758;SDS011;64371;47.566;19.086;2023-02-15T10:38:53;25.73;;;13.48;;
75758;SDS011;64371;47.566;19.086;2023-02-15T11:03:34;32.00;;;16.38;;
75758;SDS011;64371;47.566;19.086;2023-02-15T11:06:56;29.17;;;15.30;;
75758;SDS011;64371;47.566;19.086;2023-02-15T11:14:15;18.67;;;8.65;;
75758;SDS011;64371;47.566;19.086;2023-02-15T11:17:41;32.55;;;17.10;;
75758;SDS011;64371;47.566;19.086;2023-02-15T11:21:00;27.83;;;13.57;;
75758;SDS011;64371;47.566;19.086;2023-02-15T11:24:29;26.83;;;11.97;;
75758;SDS011;64371;47.566;19.086;2023-02-15T11:27:39;28.60;;;13.77;;
75758;SDS011;64371;47.566;19.086;2023-02-15T11:30:53;18.92;;;9.23;;
75758;SDS011;64371;47.566;19.086;2023-02-15T11:34:02;18.02;;;8.50;;
75758;SDS011;64371;47.566;19.086;2023-02-15T11:37:19;27.85;;;13.23;;
75758;SDS011;64371;47.566;19.086;2023-02-15T11:40:47;23.67;;;10.07;;
75758;SDS011;64371;47.566;19.086;2023-02-15T11:44:32;18.67;;;8.15;;
75758;SDS011;64371;47.566;19.086;2023-02-15T11:47:45;25.42;;;12.20;;
75758;SDS011;64371;47.566;19.086;2023-02-15T11:50:59;33.75;;;16.80;;
75758;SDS011;64371;47.566;19.086;2023-02-15T11:54:10;30.95;;;15.75;;
75758;SDS011;64371;47.566;19.086;2023-02-15T11:57:19;32.10;;;16.53;;
75758;SDS011;64371;47.566;19.086;2023-02-15T12:00:48;24.25;;;11.30;;
75758;SDS011;64371;47.566;19.086;2023-02-15T12:04:16;30.55;;;15.40;;
75758;SDS011;64371;47.566;19.086;2023-02-15T12:07:27;27.55;;;12.50;;
75758;SDS011;64371;47.566;19.086;2023-02-15T12:10:44;20.42;;;8.73;;
75758;SDS011;64371;47.566;19.086;2023-02-15T12:14:12;27.90;;;13.50;;
75758;SDS011;64371;47.566;19.086;2023-02-15T12:17:20;33.00;;;16.50;;
75758;SDS011;64371;47.566;19.086;2023-02-15T12:20:28;30.33;;;14.68;;
75758;SDS011;64371;47.566;19.086;2023-02-15T12:23:50;32.60;;;16.60;;
75758;SDS011;64371;47.566;19.086;2023-02-15T12:27:18;34.75;;;17.45;;
75758;SDS011;64371;47.566;19.086;2023-02-15T12:30:44;31.43;;;16.63;;
75758;SDS011;64371;47.566;19.086;2023-02-15T12:33:56;21.58;;;10.25;;
75758;SDS011;64371;47.566;19.086;2023-02-15T12:37:25;40.20;;;17.30;;
75758;SDS011;64371;47.566;19.086;2023-02-15T12:40:36;37.80;;;16.83;;
75758;SDS011;64371;47.566;19.086;2023-02-15T12:44:02;23.80;;;10.77;;
75758;SDS011;64371;47.566;19.086;2023-02-15T12:50:34;29.63;;;12.73;;
75758;SDS011;64371;47.566;19.086;2023-02-15T12:53:42;22.25;;;9.63;;
75758;SDS011;64371;47.566;19.086;2023-02-15T12:56:55;38.33;;;17.83;;
75758;SDS011;64371;47.566;19.086;2023-02-15T13:00:25;37.75;;;18.08;;
75758;SDS011;64371;47.566;19.086;2023-02-15T13:03:30;28.97;;;13.67;;
75758;SDS011;64371;47.566;19.086;2023-02-15T13:06:46;39.63;;;18.15;;
75758;SDS011;64371;47.566;19.086;2023-02-15T13:10:04;37.80;;;18.38;;
75758;SDS011;64371;47.566;19.086;2023-02-15T13:13:11;29.45;;;13.85;;
75758;SDS011;64371;47.566;19.086;2023-02-15T13:22:50;39.22;;;16.50;;
75758;SDS011;64371;47.566;19.086;2023-02-15T13:25:58;25.02;;;12.35;;
75758;SDS011;64371;47.566;19.086;2023-02-15T13:29:29;38.90;;;18.25;;
75758;SDS011;64371;47.566;19.086;2023-02-15T13:32:37;33.83;;;16.25;;
75758;SDS011;64371;47.566;19.086;2023-02-15T13:43:05;32.53;;;13.90;;
75758;SDS011;64371;47.566;19.086;2023-02-15T13:46:33;26.60;;;12.25;;
75758;SDS011;64371;47.566;19.086;2023-02-15T13:56:54;29.02;;;14.00;;
75758;SDS011;64371;47.566;19.086;2023-02-15T14:00:38;27.98;;;14.80;;
75758;SDS011;64371;47.566;19.086;2023-02-15T14:06:58;18.10;;;8.77;;
75758;SDS011;64371;47.566;19.086;2023-02-15T14:13:44;23.15;;;11.15;;
75758;SDS011;64371;47.566;19.086;2023-02-15T14:17:28;40.58;;;20.38;;
75758;SDS011;64371;47.566;19.086;2023-02-15T14:20:39;23.85;;;10.57;;
75758;SDS011;64371;47.566;19.086;2023-02-15T14:30:37;42.47;;;19.55;;
75758;SDS011;64371;47.566;19.086;2023-02-15T14:33:57;37.20;;;18.30;;
75758;SDS011;64371;47.566;19.086;2023-02-15T14:36:59;28.35;;;11.50;;
75758;SDS011;64371;47.566;19.086;2023-02-15T14:40:19;30.13;;;15.90;;
75758;SDS011;64371;47.566;19.086;2023-02-15T14:47:25;24.48;;;11.30;;
75758;SDS011;64371;47.566;19.086;2023-02-15T14:50:38;37.25;;;17.70;;
75758;SDS011;64371;47.566;19.086;2023-02-15T14:53:57;25.95;;;11.18;;
75758;SDS011;64371;47.566;19.086;2023-02-15T15:00:05;22.67;;;10.97;;
75758;SDS011;64371;47.566;19.086;2023-02-15T15:03:43;20.48;;;10.27;;
75758;SDS011;64371;47.566;19.086;2023-02-15T15:16:48;31.00;;;13.13;;
75758;SDS011;64371;47.566;19.086;2023-02-15T15:23:38;30.33;;;14.00;;
75758;SDS011;64371;47.566;19.086;2023-02-15T15:26:50;27.52;;;12.75;;
75758;SDS011;64371;47.566;19.086;2023-02-15T15:50:39;20.67;;;9.67;;
75758;SDS011;64371;47.566;19.086;2023-02-15T15:53:44;32.30;;;15.35;;
75758;SDS011;64371;47.566;19.086;2023-02-15T15:57:00;23.10;;;10.43;;
75758;SDS011;64371;47.566;19.086;2023-02-15T16:03:28;28.38;;;13.15;;
75758;SDS011;64371;47.566;19.086;2023-02-15T16:06:34;20.33;;;9.40;;
75758;SDS011;64371;47.566;19.086;2023-02-15T16:09:41;24.10;;;10.60;;
75758;SDS011;64371;47.566;19.086;2023-02-15T16:13:17;24.65;;;10.85;;
75758;SDS011;64371;47.566;19.086;2023-02-15T16:16:32;31.83;;;15.13;;
75758;SDS011;64371;47.566;19.086;2023-02-15T16:19:38;27.80;;;12.07;;
75758;SDS011;64371;47.566;19.086;2023-02-15T16:22:45;26.87;;;11.43;;
75758;SDS011;64371;47.566;19.086;2023-02-15T16:26:10;27.83;;;10.80;;
75758;SDS011;64371;47.566;19.086;2023-02-15T16:29:25;24.95;;;11.65;;
75758;SDS011;64371;47.566;19.086;2023-02-15T16:32:33;35.80;;;15.43;;
75758;SDS011;64371;47.566;19.086;2023-02-15T16:35:52;34.53;;;15.55;;
75758;SDS011;64371;47.566;19.086;2023-02-15T16:39:16;31.33;;;14.03;;
75758;SDS011;64371;47.566;19.086;2023-02-15T16:42:25;35.20;;;14.00;;
75758;SDS011;64371;47.566;19.086;2023-02-15T16:45:31;34.53;;;15.00;;
75758;SDS011;64371;47.566;19.086;2023-02-15T16:48:39;35.47;;;15.30;;
75758;SDS011;64371;47.566;19.086;2023-02-15T16:55:19;32.03;;;14.70;;
75758;SDS011;64371;47.566;19.086;2023-02-15T16:58:29;34.58;;;14.63;;
75758;SDS011;64371;47.566;19.086;2023-02-15T17:01:37;30.77;;;13.40;;
75758;SDS011;64371;47.566;19.086;2023-02-15T17:08:18;42.83;;;17.08;;
75758;SDS011;64371;47.566;19.086;2023-02-15T17:11:35;44.20;;;18.87;;
75758;SDS011;64371;47.566;19.086;2023-02-15T17:14:45;37.25;;;14.95;;
75758;SDS011;64371;47.566;19.086;2023-02-15T17:17:49;38.08;;;16.80;;
75758;SDS011;64371;47.566;19.086;2023-02-15T17:21:08;38.83;;;16.70;;
75758;SDS011;64371;47.566;19.086;2023-02-15T17:24:18;38.10;;;16.17;;
75758;SDS011;64371;47.566;19.086;2023-02-15T17:27:33;39.40;;;17.07;;
75758;SDS011;64371;47.566;19.086;2023-02-15T17:30:38;39.05;;;16.75;;
75758;SDS011;64371;47.566;19.086;2023-02-15T17:34:01;38.30;;;17.45;;
75758;SDS011;64371;47.566;19.086;2023-02-15T17:37:13;46.33;;;18.23;;
75758;SDS011;64371;47.566;19.086;2023-02-15T17:40:32;37.22;;;16.25;;
75758;SDS011;64371;47.566;19.086;2023-02-15T17:43:39;37.60;;;16.27;;
75758;SDS011;64371;47.566;19.086;2023-02-15T17:46:49;39.97;;;16.23;;
75758;SDS011;64371;47.566;19.086;2023-02-15T17:50:01;37.25;;;16.95;;
75758;SDS011;64371;47.566;19.086;2023-02-15T17:53:16;42.80;;;17.00;;
75758;SDS011;64371;47.566;19.086;2023-02-15T17:56:20;36.67;;;16.00;;
75758;SDS011;64371;47.566;19.086;2023-02-15T17:59:25;36.33;;;15.77;;
75758;SDS011;64371;47.566;19.086;2023-02-15T18:02:33;63.63;;;28.15;;
75758;SDS011;64371;47.566;19.086;2023-02-15T18:05:55;71.70;;;31.80;;
75758;SDS011;64371;47.566;19.086;2023-02-15T18:09:17;53.80;;;26.05;;
75758;SDS011;64371;47.566;19.086;2023-02-15T18:12:40;47.45;;;22.48;;
75758;SDS011;64371;47.566;19.086;2023-02-15T18:15:45;54.87;;;24.43;;
75758;SDS011;64371;47.566;19.086;2023-02-15T18:18:54;50.28;;;22.38;;
75758;SDS011;64371;47.566;19.086;2023-02-15T18:22:23;54.60;;;23.08;;
75758;SDS011;64371;47.566;19.086;2023-02-15T18:25:48;54.03;;;22.33;;
75758;SDS011;64371;47.566;19.086;2023-02-15T18:28:53;51.15;;;22.52;;
75758;SDS011;64371;47.566;19.086;2023-02-15T18:31:59;47.70;;;21.20;;
75758;SDS011;64371;47.566;19.086;2023-02-15T18:35:12;46.28;;;21.80;;
75758;SDS011;64371;47.566;19.086;2023-02-15T18:38:21;53.33;;;22.90;;
75758;SDS011;64371;47.566;19.086;2023-02-15T18:41:24;44.47;;;20.52;;
75758;SDS011;64371;47.566;19.086;2023-02-15T18:44:32;46.58;;;21.45;;
75758;SDS011;64371;47.566;19.086;2023-02-15T18:47:37;42.47;;;19.40;;
75758;SDS011;64371;47.566;19.086;2023-02-15T18:50:40;43.63;;;19.63;;
75758;SDS011;64371;47.566;19.086;2023-02-15T18:53:45;48.03;;;21.23;;
75758;SDS011;64371;47.566;19.086;2023-02-15T18:57:01;44.47;;;19.77;;
75758;SDS011;64371;47.566;19.086;2023-02-15T19:03:26;47.37;;;18.70;;
75758;SDS011;64371;47.566;19.086;2023-02-15T19:06:31;46.92;;;19.10;;
75758;SDS011;64371;47.566;19.086;2023-02-15T19:09:42;49.00;;;20.33;;
75758;SDS011;64371;47.566;19.086;2023-02-15T19:12:58;56.75;;;23.02;;
75758;SDS011;64371;47.566;19.086;2023-02-15T19:16:02;51.60;;;21.55;;
75758;SDS011;64371;47.566;19.086;2023-02-15T19:19:16;56.73;;;23.17;;
75758;SDS011;64371;47.566;19.086;2023-02-15T19:22:25;59.38;;;23.70;;
75758;SDS011;64371;47.566;19.086;2023-02-15T19:25:41;59.20;;;23.60;;
75758;SDS011;64371;47.566;19.086;2023-02-15T19:28:46;60.22;;;24.42;;
75758;SDS011;64371;47.566;19.086;2023-02-15T19:31:53;59.27;;;25.07;;
75758;SDS011;64371;47.566;19.086;2023-02-15T19:34:58;56.87;;;24.70;;
75758;SDS011;64371;47.566;19.086;2023-02-15T19:38:03;62.65;;;24.42;;
75758;SDS011;64371;47.566;19.086;2023-02-15T19:41:18;65.88;;;27.98;;
75758;SDS011;64371;47.566;19.086;2023-02-15T19:44:31;76.20;;;32.55;;
75758;SDS011;64371;47.566;19.086;2023-02-15T19:47:36;70.35;;;30.45;;
75758;SDS011;64371;47.566;19.086;2023-02-15T19:50:41;88.70;;;37.00;;
75758;SDS011;64371;47.566;19.086;2023-02-15T19:53:47;82.68;;;34.15;;
75758;SDS011;64371;47.566;19.086;2023-02-15T19:56:52;88.88;;;35.63;;
75758;SDS011;64371;47.566;19.086;2023-02-15T19:59:59;99.97;;;40.90;;
75758;SDS011;64371;47.566;19.086;2023-02-15T20:03:26;93.87;;;38.87;;
75758;SDS011;64371;47.566;19.086;2023-02-15T20:06:31;90.93;;;37.00;;
75758;SDS011;64371;47.566;19.086;2023-02-15T20:09:34;85.00;;;36.28;;
75758;SDS011;64371;47.566;19.086;2023-02-15T20:12:40;84.82;;;36.25;;
75758;SDS011;64371;47.566;19.086;2023-02-15T20:15:48;78.63;;;31.00;;
75758;SDS011;64371;47.566;19.086;2023-02-15T20:18:58;78.47;;;31.70;;
75758;SDS011;64371;47.566;19.086;2023-02-15T20:22:05;82.00;;;31.53;;
75758;SDS011;64371;47.566;19.086;2023-02-15T20:25:17;81.72;;;31.58;;
75758;SDS011;64371;47.566;19.086;2023-02-15T20:28:27;86.22;;;35.35;;
75758;SDS011;64371;47.566;19.086;2023-02-15T20:31:32;85.00;;;35.42;;
75758;SDS011;64371;47.566;19.086;2023-02-15T20:34:40;84.50;;;35.90;;
75758;SDS011;64371;47.566;19.086;2023-02-15T20:37:48;79.90;;;33.40;;
75758;SDS011;64371;47.566;19.086;2023-02-15T20:40:55;80.57;;;34.13;;
75758;SDS011;64371;47.566;19.086;2023-02-15T20:44:26;88.10;;;34.35;;
75758;SDS011;64371;47.566;19.086;2023-02-15T20:47:41;88.05;;;35.60;;
75758;SDS011;64371;47.566;19.086;2023-02-15T20:50:49;87.30;;;35.43;;
75758;SDS011;64371;47.566;19.086;2023-02-15T20:53:51;85.10;;;34.37;;
75758;SDS011;64371;47.566;19.086;2023-02-15T20:57:03;84.20;;;35.03;;
75758;SDS011;64371;47.566;19.086;2023-02-15T21:00:30;89.95;;;35.75;;
75758;SDS011;64371;47.566;19.086;2023-02-15T21:03:35;87.45;;;35.95;;
75758;SDS011;64371;47.566;19.086;2023-02-15T21:06:44;87.97;;;36.50;;
75758;SDS011;64371;47.566;19.086;2023-02-15T21:09:52;91.77;;;37.70;;
75758;SDS011;64371;47.566;19.086;2023-02-15T21:13:04;73.45;;;30.17;;
75758;SDS011;64371;47.566;19.086;2023-02-15T21:16:07;64.78;;;25.55;;
75758;SDS011;64371;47.566;19.086;2023-02-15T21:19:15;64.47;;;25.52;;
75758;SDS011;64371;47.566;19.086;2023-02-15T21:22:21;60.03;;;24.03;;
75758;SDS011;64371;47.566;19.086;2023-02-15T21:25:35;68.87;;;26.37;;
75758;SDS011;64371;47.566;19.086;2023-02-15T21:28:38;72.00;;;27.58;;
75758;SDS011;64371;47.566;19.086;2023-02-15T21:31:42;71.22;;;27.75;;